Renner Field-Goodland Municipal Airport
KGLD : now visible

Airfield :











YOU CAN JOIN US ON...

 
LOGIN :

Register | Disclaimer

   EN    FR    IT 

 









Legend :    VFR   Marginal VFR   IFR   Intensive IFR   Very Intensive IFR
Visi :
Ceiling :
>= 8 km
>= 3000ft
5 to 8 km
1000 to 3000 ft
1500m to 5 km
500 to 1000 ft
800 to 1500m
200 to 500 ft
< 800m
< 200 ft
Symbols :   Thunderstorms  Fog  Heavy snow  Heavy precipitations  Wind > 20 kt






- Airport Elevation : 3656 ft


KGLD - Renner Field-Goodland Municipal

CURRENT METAR :
  • 130353Z AUTO 14014G25KT 10SM CLR 21/15 A3000 RMK AO2 PK WND 12028/0255 SLP112 T02110150

EXPIRED METARs :
  • 130253Z AUTO 12017G26KT 10SM CLR 24/15 A2998 RMK AO2 PK WND 13026/0253 SLP109 60000 T02390150 51012
  • 130153Z AUTO 15008G23KT 10SM CLR 24/16 A2996 RMK AO2 PK WND 18029/0140 WSHFT 0128 PRESFR SLP102 T02440156

TAF KGLD
Valid from the 13 at 00:00 until the 14 at 00:00 UTC


122320Z 1300/1324 VRB20G30KT P6SM VCTS BKN050CB
FM130200 17008KT P6SM BKN250
FM131800 17012G20KT P6SM FEW250
KZDV FIR / North America



MET'MAP, your aeronautical weather chart ! - Copyright ORBIFLY December 2007 - Disclaimer

ORBIFLY MET'MAP TEAM :

Programming & Development : Alexandra Zaïnal
Concept & original design : Baudouin d'Aumeries
Assistance for programming : Marc-Olivier Méhu
Technical & hardware support : Manuel Goepfert

Contact : metmap@orbifly.com




SOURCES & CREDITS :

   NOAA       Earth
Advisory